sensor_id;sensor_type;location;lat;lon;timestamp;pressure;altitude;pressure_sealevel;temperature;humidity
39491;BME280;25175;50.140;18.990;2023-03-16T00:02:31;98731.31;;;1.49;54.42
39491;BME280;25175;50.140;18.990;2023-03-16T00:05:38;98730.66;;;1.47;54.29
39491;BME280;25175;50.140;18.990;2023-03-16T00:08:43;98723.66;;;1.30;54.72
39491;BME280;25175;50.140;18.990;2023-03-16T00:11:47;98720.22;;;1.29;54.63
39491;BME280;25175;50.140;18.990;2023-03-16T00:14:52;98742.13;;;1.35;54.83
39491;BME280;25175;50.140;18.990;2023-03-16T00:17:56;98748.13;;;1.35;54.82
39491;BME280;25175;50.140;18.990;2023-03-16T00:21:05;98742.41;;;1.32;54.76
39491;BME280;25175;50.140;18.990;2023-03-16T00:24:09;98722.47;;;1.15;54.63
39491;BME280;25175;50.140;18.990;2023-03-16T00:27:20;98737.41;;;1.21;55.05
39491;BME280;25175;50.140;18.990;2023-03-16T00:30:26;98741.94;;;1.19;55.32
39491;BME280;25175;50.140;18.990;2023-03-16T00:33:32;98745.59;;;1.16;55.58
39491;BME280;25175;50.140;18.990;2023-03-16T00:36:42;98743.97;;;1.15;55.50
39491;BME280;25175;50.140;18.990;2023-03-16T00:39:47;98739.91;;;1.13;55.52
39491;BME280;25175;50.140;18.990;2023-03-16T00:42:51;98732.22;;;1.03;55.60
39491;BME280;25175;50.140;18.990;2023-03-16T00:45:57;98751.47;;;1.09;55.69
39491;BME280;25175;50.140;18.990;2023-03-16T00:49:06;98736.44;;;0.95;55.84
39491;BME280;25175;50.140;18.990;2023-03-16T00:52:14;98750.44;;;1.02;55.87
39491;BME280;25175;50.140;18.990;2023-03-16T00:55:19;98680.63;;;0.38;56.03
39491;BME280;25175;50.140;18.990;2023-03-16T00:58:24;98745.13;;;1.03;56.04
39491;BME280;25175;50.140;18.990;2023-03-16T01:01:29;98751.78;;;1.06;55.97
39491;BME280;25175;50.140;18.990;2023-03-16T01:04:34;98756.94;;;1.06;55.93
39491;BME280;25175;50.140;18.990;2023-03-16T01:07:42;98753.53;;;1.05;56.02
39491;BME280;25175;50.140;18.990;2023-03-16T01:10:47;98747.13;;;1.09;56.03
39491;BME280;25175;50.140;18.990;2023-03-16T01:13:52;98757.19;;;1.12;55.95
39491;BME280;25175;50.140;18.990;2023-03-16T01:16:57;98738.59;;;0.99;55.85
39491;BME280;25175;50.140;18.990;2023-03-16T01:20:03;98666.06;;;0.47;55.83
39491;BME280;25175;50.140;18.990;2023-03-16T01:23:16;98760.19;;;1.08;55.95
39491;BME280;25175;50.140;18.990;2023-03-16T01:26:21;98770.78;;;1.05;56.09
39491;BME280;25175;50.140;18.990;2023-03-16T01:29:26;98771.09;;;1.02;56.15
39491;BME280;25175;50.140;18.990;2023-03-16T01:32:32;98771.22;;;1.00;56.32
39491;BME280;25175;50.140;18.990;2023-03-16T01:35:37;98769.47;;;1.01;56.41
39491;BME280;25175;50.140;18.990;2023-03-16T01:38:45;98775.72;;;0.98;56.38
39491;BME280;25175;50.140;18.990;2023-03-16T01:41:50;98769.88;;;0.96;56.50
39491;BME280;25175;50.140;18.990;2023-03-16T01:44:57;98776.81;;;0.96;56.47
39491;BME280;25175;50.140;18.990;2023-03-16T01:48:12;98776.28;;;0.92;56.75
39491;BME280;25175;50.140;18.990;2023-03-16T01:51:23;98773.97;;;0.89;56.59
39491;BME280;25175;50.140;18.990;2023-03-16T01:54:41;98776.28;;;0.83;56.82
39491;BME280;25175;50.140;18.990;2023-03-16T01:57:49;98787.88;;;0.79;57.09
39491;BME280;25175;50.140;18.990;2023-03-16T02:00:55;98650.94;;;-0.13;57.18
39491;BME280;25175;50.140;18.990;2023-03-16T02:04:10;98789.09;;;0.75;57.30
39491;BME280;25175;50.140;18.990;2023-03-16T02:07:27;98778.78;;;0.75;57.23
39491;BME280;25175;50.140;18.990;2023-03-16T02:10:37;98778.09;;;0.73;57.12
39491;BME280;25175;50.140;18.990;2023-03-16T02:13:46;98784.91;;;0.74;57.14
39491;BME280;25175;50.140;18.990;2023-03-16T02:16:52;98769.44;;;0.64;57.21
39491;BME280;25175;50.140;18.990;2023-03-16T02:20:09;98786.13;;;0.70;57.31
39491;BME280;25175;50.140;18.990;2023-03-16T02:23:25;98795.91;;;0.66;57.35
39491;BME280;25175;50.140;18.990;2023-03-16T02:26:41;98812.22;;;0.67;57.35
39491;BME280;25175;50.140;18.990;2023-03-16T02:30:02;98817.53;;;0.65;57.66
39491;BME280;25175;50.140;18.990;2023-03-16T02:33:24;98810.88;;;0.63;57.72
39491;BME280;25175;50.140;18.990;2023-03-16T02:36:31;98818.88;;;0.60;57.77
39491;BME280;25175;50.140;18.990;2023-03-16T02:39:38;98825.53;;;0.53;57.91
39491;BME280;25175;50.140;18.990;2023-03-16T02:42:47;98826.50;;;0.52;58.29
39491;BME280;25175;50.140;18.990;2023-03-16T02:46:07;98839.41;;;0.52;58.16
39491;BME280;25175;50.140;18.990;2023-03-16T02:49:18;98838.44;;;0.53;58.26
39491;BME280;25175;50.140;18.990;2023-03-16T02:52:29;98823.75;;;0.44;58.24
39491;BME280;25175;50.140;18.990;2023-03-16T02:55:34;98845.25;;;0.54;58.25
39491;BME280;25175;50.140;18.990;2023-03-16T02:58:39;98855.84;;;0.51;58.13
39491;BME280;25175;50.140;18.990;2023-03-16T03:01:51;98859.53;;;0.48;58.31
39491;BME280;25175;50.140;18.990;2023-03-16T03:04:56;98872.81;;;0.44;58.13
39491;BME280;25175;50.140;18.990;2023-03-16T03:08:02;98862.72;;;0.03;58.36
39491;BME280;25175;50.140;18.990;2023-03-16T03:11:08;98869.84;;;0.39;58.44
39491;BME280;25175;50.140;18.990;2023-03-16T03:14:13;98855.03;;;0.31;58.27
39491;BME280;25175;50.140;18.990;2023-03-16T03:17:23;98866.56;;;0.46;58.22
39491;BME280;25175;50.140;18.990;2023-03-16T03:20:30;98869.72;;;0.50;57.92
39491;BME280;25175;50.140;18.990;2023-03-16T03:23:35;98871.06;;;0.54;57.76
39491;BME280;25175;50.140;18.990;2023-03-16T03:26:41;98866.59;;;0.56;57.48
39491;BME280;25175;50.140;18.990;2023-03-16T03:29:55;98930.44;;;0.54;57.61
39491;BME280;25175;50.140;18.990;2023-03-16T03:33:04;98883.97;;;0.54;57.47
39491;BME280;25175;50.140;18.990;2023-03-16T03:36:10;98865.06;;;0.44;57.73
39491;BME280;25175;50.140;18.990;2023-03-16T03:39:18;98898.78;;;0.52;57.55
39491;BME280;25175;50.140;18.990;2023-03-16T03:42:25;98897.41;;;0.48;57.86
39491;BME280;25175;50.140;18.990;2023-03-16T03:45:29;98906.94;;;0.47;57.81
39491;BME280;25175;50.140;18.990;2023-03-16T03:48:37;98878.38;;;0.30;58.04
39491;BME280;25175;50.140;18.990;2023-03-16T03:51:42;98887.63;;;0.23;58.18
39491;BME280;25175;50.140;18.990;2023-03-16T03:54:51;98912.88;;;0.29;58.27
39491;BME280;25175;50.140;18.990;2023-03-16T03:57:56;98907.84;;;0.27;58.20
39491;BME280;25175;50.140;18.990;2023-03-16T04:01:01;98915.72;;;0.26;58.35
39491;BME280;25175;50.140;18.990;2023-03-16T04:04:10;98916.00;;;0.23;58.40
39491;BME280;25175;50.140;18.990;2023-03-16T04:07:15;98919.78;;;0.19;58.64
39491;BME280;25175;50.140;18.990;2023-03-16T04:10:20;98915.56;;;0.18;58.65
39491;BME280;25175;50.140;18.990;2023-03-16T04:13:27;98931.31;;;0.15;58.98
39491;BME280;25175;50.140;18.990;2023-03-16T04:16:31;98934.97;;;0.12;58.86
39491;BME280;25175;50.140;18.990;2023-03-16T04:19:39;98884.41;;;-0.09;58.89
39491;BME280;25175;50.140;18.990;2023-03-16T04:22:48;98926.13;;;0.15;58.44
39491;BME280;25175;50.140;18.990;2023-03-16T04:25:59;98830.00;;;-0.46;58.13
39491;BME280;25175;50.140;18.990;2023-03-16T04:29:06;98923.31;;;0.18;58.12
39491;BME280;25175;50.140;18.990;2023-03-16T04:32:13;98928.47;;;0.18;57.98
39491;BME280;25175;50.140;18.990;2023-03-16T04:35:21;98941.50;;;0.16;57.73
39491;BME280;25175;50.140;18.990;2023-03-16T04:38:31;98933.75;;;0.16;57.92
39491;BME280;25175;50.140;18.990;2023-03-16T04:41:39;98917.56;;;0.05;57.41
39491;BME280;25175;50.140;18.990;2023-03-16T04:44:50;98933.63;;;0.18;57.56
39491;BME280;25175;50.140;18.990;2023-03-16T04:47:56;98936.75;;;0.21;57.29
39491;BME280;25175;50.140;18.990;2023-03-16T04:51:04;98935.81;;;0.22;57.07
39491;BME280;25175;50.140;18.990;2023-03-16T04:54:13;98895.25;;;-0.15;56.96
39491;BME280;25175;50.140;18.990;2023-03-16T04:57:19;98948.19;;;0.28;56.82
39491;BME280;25175;50.140;18.990;2023-03-16T05:00:26;98949.00;;;0.29;56.32
39491;BME280;25175;50.140;18.990;2023-03-16T05:03:38;98942.22;;;0.28;56.39
39491;BME280;25175;50.140;18.990;2023-03-16T05:06:46;98947.75;;;0.23;56.06
39491;BME280;25175;50.140;18.990;2023-03-16T05:09:56;98944.63;;;0.20;56.15
39491;BME280;25175;50.140;18.990;2023-03-16T05:13:01;98892.25;;;-0.11;56.10
39491;BME280;25175;50.140;18.990;2023-03-16T05:16:06;98946.91;;;0.13;56.20
39491;BME280;25175;50.140;18.990;2023-03-16T05:19:14;98965.44;;;0.28;56.06
39491;BME280;25175;50.140;18.990;2023-03-16T05:22:23;98968.16;;;0.26;56.02
39491;BME280;25175;50.140;18.990;2023-03-16T05:25:45;98965.69;;;0.25;56.23
39491;BME280;25175;50.140;18.990;2023-03-16T05:28:52;98952.06;;;0.13;56.06
39491;BME280;25175;50.140;18.990;2023-03-16T05:32:00;98927.59;;;-0.02;56.27
39491;BME280;25175;50.140;18.990;2023-03-16T05:35:08;98968.53;;;0.22;56.71
39491;BME280;25175;50.140;18.990;2023-03-16T05:38:21;98972.75;;;0.23;56.60
39491;BME280;25175;50.140;18.990;2023-03-16T05:41:29;98987.53;;;0.21;57.44
39491;BME280;25175;50.140;18.990;2023-03-16T05:44:38;98984.16;;;0.20;57.64
39491;BME280;25175;50.140;18.990;2023-03-16T05:48:01;98981.72;;;0.19;58.12
39491;BME280;25175;50.140;18.990;2023-03-16T05:51:10;98992.28;;;0.16;58.26
39491;BME280;25175;50.140;18.990;2023-03-16T05:54:19;98994.69;;;0.08;58.67
39491;BME280;25175;50.140;18.990;2023-03-16T05:57:24;98995.78;;;0.05;58.89
39491;BME280;25175;50.140;18.990;2023-03-16T06:00:30;99004.03;;;-0.01;59.07
39491;BME280;25175;50.140;18.990;2023-03-16T06:03:51;99013.91;;;-0.06;59.43
39491;BME280;25175;50.140;18.990;2023-03-16T06:07:00;98996.78;;;-0.16;59.52
39491;BME280;25175;50.140;18.990;2023-03-16T06:10:10;99017.69;;;-0.10;59.65
39491;BME280;25175;50.140;18.990;2023-03-16T06:13:16;99017.97;;;-0.13;59.83
39491;BME280;25175;50.140;18.990;2023-03-16T06:16:21;99030.97;;;-0.14;60.01
39491;BME280;25175;50.140;18.990;2023-03-16T06:19:27;99030.16;;;-0.15;60.17
39491;BME280;25175;50.140;18.990;2023-03-16T06:22:34;99030.97;;;-0.14;60.29
39491;BME280;25175;50.140;18.990;2023-03-16T06:25:45;99026.50;;;-0.12;60.47
39491;BME280;25175;50.140;18.990;2023-03-16T06:28:51;99043.34;;;-0.08;60.52
39491;BME280;25175;50.140;18.990;2023-03-16T06:31:57;99036.19;;;-0.05;60.59
39491;BME280;25175;50.140;18.990;2023-03-16T06:35:04;99051.13;;;0.01;60.67
39491;BME280;25175;50.140;18.990;2023-03-16T06:38:11;99049.00;;;0.06;60.54
39491;BME280;25175;50.140;18.990;2023-03-16T06:41:29;99041.69;;;0.11;60.74
39491;BME280;25175;50.140;18.990;2023-03-16T06:44:35;99058.56;;;0.15;60.85
39491;BME280;25175;50.140;18.990;2023-03-16T06:47:47;99042.69;;;0.20;60.85
39491;BME280;25175;50.140;18.990;2023-03-16T06:50:53;99050.22;;;0.32;61.34
39491;BME280;25175;50.140;18.990;2023-03-16T06:54:01;99051.31;;;0.39;61.47
39491;BME280;25175;50.140;18.990;2023-03-16T06:57:11;99060.03;;;0.48;61.22
39491;BME280;25175;50.140;18.990;2023-03-16T07:00:17;99067.66;;;0.49;61.46
39491;BME280;25175;50.140;18.990;2023-03-16T07:03:23;99053.00;;;0.50;61.56
39491;BME280;25175;50.140;18.990;2023-03-16T07:06:33;99067.53;;;0.51;61.63
39491;BME280;25175;50.140;18.990;2023-03-16T07:09:38;99065.63;;;0.53;61.78
39491;BME280;25175;50.140;18.990;2023-03-16T07:12:46;99058.31;;;0.58;61.66
39491;BME280;25175;50.140;18.990;2023-03-16T07:15:51;98978.66;;;0.04;61.68
39491;BME280;25175;50.140;18.990;2023-03-16T07:19:00;99072.09;;;0.77;62.05
39491;BME280;25175;50.140;18.990;2023-03-16T07:22:06;99074.88;;;0.95;61.98
39491;BME280;25175;50.140;18.990;2023-03-16T07:25:14;99073.81;;;1.07;61.43
39491;BME280;25175;50.140;18.990;2023-03-16T07:28:27;99072.97;;;1.16;61.19
39491;BME280;25175;50.140;18.990;2023-03-16T07:31:34;99088.91;;;1.21;60.70
39491;BME280;25175;50.140;18.990;2023-03-16T07:34:45;99073.28;;;1.22;60.92
39491;BME280;25175;50.140;18.990;2023-03-16T07:37:49;99077.91;;;1.28;60.45
39491;BME280;25175;50.140;18.990;2023-03-16T07:40:55;99077.78;;;1.30;60.27
39491;BME280;25175;50.140;18.990;2023-03-16T07:44:02;99085.78;;;1.27;59.97
39491;BME280;25175;50.140;18.990;2023-03-16T07:47:11;99080.34;;;1.30;59.86
39491;BME280;25175;50.140;18.990;2023-03-16T07:50:18;99090.28;;;1.34;60.16
39491;BME280;25175;50.140;18.990;2023-03-16T07:53:24;99088.13;;;1.39;59.74
39491;BME280;25175;50.140;18.990;2023-03-16T07:56:45;99095.63;;;1.52;59.97
39491;BME280;25175;50.140;18.990;2023-03-16T07:59:59;99096.72;;;1.59;59.31
39491;BME280;25175;50.140;18.990;2023-03-16T08:03:14;99091.97;;;1.64;59.56
39491;BME280;25175;50.140;18.990;2023-03-16T08:06:20;99091.00;;;1.65;59.19
39491;BME280;25175;50.140;18.990;2023-03-16T08:09:25;99093.31;;;1.68;59.03
39491;BME280;25175;50.140;18.990;2023-03-16T08:12:31;99097.25;;;1.81;59.27
39491;BME280;25175;50.140;18.990;2023-03-16T08:15:38;99092.75;;;1.93;58.99
39491;BME280;25175;50.140;18.990;2023-03-16T08:18:56;99103.78;;;2.04;58.71
39491;BME280;25175;50.140;18.990;2023-03-16T08:22:01;99095.84;;;2.15;58.34
39491;BME280;25175;50.140;18.990;2023-03-16T08:25:14;99096.50;;;2.27;58.78
39491;BME280;25175;50.140;18.990;2023-03-16T08:28:33;99097.84;;;2.40;58.79
39491;BME280;25175;50.140;18.990;2023-03-16T08:31:46;99089.91;;;2.42;57.18
39491;BME280;25175;50.140;18.990;2023-03-16T08:35:01;99095.06;;;2.42;57.31
39491;BME280;25175;50.140;18.990;2023-03-16T08:38:05;99112.91;;;2.54;57.77
39491;BME280;25175;50.140;18.990;2023-03-16T08:41:10;99107.22;;;2.78;57.63
39491;BME280;25175;50.140;18.990;2023-03-16T08:44:17;99113.44;;;2.85;56.26
39491;BME280;25175;50.140;18.990;2023-03-16T08:47:24;99106.50;;;2.85;56.51
39491;BME280;25175;50.140;18.990;2023-03-16T08:50:29;99106.72;;;2.92;56.70
39491;BME280;25175;50.140;18.990;2023-03-16T08:53:35;99115.28;;;3.02;56.94
39491;BME280;25175;50.140;18.990;2023-03-16T08:56:40;99115.25;;;3.11;56.25
39491;BME280;25175;50.140;18.990;2023-03-16T08:59:45;99118.03;;;3.18;56.04
39491;BME280;25175;50.140;18.990;2023-03-16T09:02:52;99101.84;;;3.16;55.46
39491;BME280;25175;50.140;18.990;2023-03-16T09:06:00;99102.28;;;3.29;55.68
39491;BME280;25175;50.140;18.990;2023-03-16T09:09:06;99130.75;;;3.56;55.92
39491;BME280;25175;50.140;18.990;2023-03-16T09:12:12;99114.97;;;3.67;54.51
39491;BME280;25175;50.140;18.990;2023-03-16T09:15:18;99132.47;;;3.82;53.98
39491;BME280;25175;50.140;18.990;2023-03-16T09:18:26;99135.91;;;3.83;53.34
39491;BME280;25175;50.140;18.990;2023-03-16T09:21:31;99128.63;;;3.86;53.26
39491;BME280;25175;50.140;18.990;2023-03-16T09:24:38;99134.41;;;3.98;53.38
39491;BME280;25175;50.140;18.990;2023-03-16T09:27:42;99131.59;;;4.09;53.82
39491;BME280;25175;50.140;18.990;2023-03-16T09:30:47;99118.91;;;4.31;53.83
39491;BME280;25175;50.140;18.990;2023-03-16T09:33:55;99123.19;;;4.40;52.28
39491;BME280;25175;50.140;18.990;2023-03-16T09:37:00;99129.03;;;4.42;50.62
39491;BME280;25175;50.140;18.990;2023-03-16T09:40:06;99125.59;;;4.34;50.41
39491;BME280;25175;50.140;18.990;2023-03-16T09:47:04;99138.63;;;4.42;51.07
39491;BME280;25175;50.140;18.990;2023-03-16T09:50:19;99133.84;;;4.55;50.73
39491;BME280;25175;50.140;18.990;2023-03-16T09:53:30;99138.16;;;4.72;50.27
39491;BME280;25175;50.140;18.990;2023-03-16T09:56:41;99133.19;;;4.86;50.05
39491;BME280;25175;50.140;18.990;2023-03-16T09:59:47;99143.28;;;4.89;48.77
39491;BME280;25175;50.140;18.990;2023-03-16T10:03:04;99148.78;;;4.86;47.24
39491;BME280;25175;50.140;18.990;2023-03-16T10:06:21;99127.09;;;4.70;47.60
39491;BME280;25175;50.140;18.990;2023-03-16T10:09:32;99134.63;;;4.81;48.22
39491;BME280;25175;50.140;18.990;2023-03-16T10:12:46;99138.59;;;5.01;47.98
39491;BME280;25175;50.140;18.990;2023-03-16T10:15:58;99126.00;;;5.14;47.28
39491;BME280;25175;50.140;18.990;2023-03-16T10:19:13;99145.25;;;5.37;46.24
39491;BME280;25175;50.140;18.990;2023-03-16T10:22:30;99147.69;;;5.46;45.31
39491;BME280;25175;50.140;18.990;2023-03-16T10:25:43;99148.47;;;5.39;45.44
39491;BME280;25175;50.140;18.990;2023-03-16T10:40:30;99149.06;;;5.17;45.72
39491;BME280;25175;50.140;18.990;2023-03-16T10:43:36;99136.19;;;5.07;45.22
39491;BME280;25175;50.140;18.990;2023-03-16T10:46:48;99153.97;;;5.28;45.06
39491;BME280;25175;50.140;18.990;2023-03-16T10:49:55;99142.63;;;5.29;44.75
39491;BME280;25175;50.140;18.990;2023-03-16T10:53:01;99060.66;;;4.75;45.08
39491;BME280;25175;50.140;18.990;2023-03-16T10:56:18;99104.34;;;5.05;44.49
39491;BME280;25175;50.140;18.990;2023-03-16T10:59:29;99157.41;;;5.36;45.22
39491;BME280;25175;50.140;18.990;2023-03-16T11:02:36;99148.66;;;5.45;45.16
39491;BME280;25175;50.140;18.990;2023-03-16T11:05:41;99143.72;;;5.68;44.46
39491;BME280;25175;50.140;18.990;2023-03-16T11:08:47;99137.38;;;5.86;43.31
39491;BME280;25175;50.140;18.990;2023-03-16T11:12:12;99131.19;;;5.79;42.42
39491;BME280;25175;50.140;18.990;2023-03-16T11:15:19;99143.03;;;5.66;41.85
39491;BME280;25175;50.140;18.990;2023-03-16T11:18:29;99140.88;;;5.45;41.51
39491;BME280;25175;50.140;18.990;2023-03-16T11:21:46;99169.28;;;5.31;41.48
39491;BME280;25175;50.140;18.990;2023-03-16T11:25:03;99139.25;;;5.44;41.92
39491;BME280;25175;50.140;18.990;2023-03-16T11:28:31;99112.41;;;5.52;41.84
39491;BME280;25175;50.140;18.990;2023-03-16T11:31:47;99143.06;;;5.82;41.12
39491;BME280;25175;50.140;18.990;2023-03-16T11:34:58;99135.41;;;5.96;41.18
39491;BME280;25175;50.140;18.990;2023-03-16T11:38:12;99135.59;;;6.03;41.06
39491;BME280;25175;50.140;18.990;2023-03-16T11:41:29;99135.09;;;5.99;40.74
39491;BME280;25175;50.140;18.990;2023-03-16T11:44:54;99099.13;;;5.71;41.16
39491;BME280;25175;50.140;18.990;2023-03-16T11:48:26;99100.91;;;5.94;40.79
39491;BME280;25175;50.140;18.990;2023-03-16T11:51:44;98880.66;;;4.73;38.90
39491;BME280;25175;50.140;18.990;2023-03-16T11:55:14;99114.06;;;6.17;39.39
39491;BME280;25175;50.140;18.990;2023-03-16T11:58:39;99116.88;;;6.15;39.50
39491;BME280;25175;50.140;18.990;2023-03-16T12:02:15;99081.38;;;5.98;38.88
39491;BME280;25175;50.140;18.990;2023-03-16T12:05:47;99099.91;;;6.27;38.83
39491;BME280;25175;50.140;18.990;2023-03-16T12:09:22;99095.34;;;6.29;37.89
39491;BME280;25175;50.140;18.990;2023-03-16T12:13:10;99079.38;;;6.24;37.57
39491;BME280;25175;50.140;18.990;2023-03-16T12:16:39;99110.78;;;6.39;39.10
39491;BME280;25175;50.140;18.990;2023-03-16T12:19:54;99122.69;;;6.33;38.01
39491;BME280;25175;50.140;18.990;2023-03-16T12:23:09;99119.59;;;6.22;38.73
39491;BME280;25175;50.140;18.990;2023-03-16T12:26:25;99110.19;;;6.13;38.73
39491;BME280;25175;50.140;18.990;2023-03-16T12:29:40;99114.91;;;6.09;39.28
39491;BME280;25175;50.140;18.990;2023-03-16T12:33:05;99124.50;;;6.09;38.63
39491;BME280;25175;50.140;18.990;2023-03-16T12:36:49;99111.50;;;6.09;39.64
39491;BME280;25175;50.140;18.990;2023-03-16T12:40:21;99119.31;;;6.09;39.64
39491;BME280;25175;50.140;18.990;2023-03-16T12:47:25;99123.22;;;6.13;39.25
39491;BME280;25175;50.140;18.990;2023-03-16T12:51:09;99105.78;;;6.21;39.38
39491;BME280;25175;50.140;18.990;2023-03-16T12:54:23;99093.06;;;6.18;39.18
39491;BME280;25175;50.140;18.990;2023-03-16T12:57:30;99120.59;;;6.29;38.85
39491;BME280;25175;50.140;18.990;2023-03-16T13:00:37;99107.88;;;6.34;39.56
39491;BME280;25175;50.140;18.990;2023-03-16T13:03:48;99114.06;;;6.41;38.32
39491;BME280;25175;50.140;18.990;2023-03-16T13:07:04;99113.34;;;6.55;38.61
39491;BME280;25175;50.140;18.990;2023-03-16T13:10:19;99029.09;;;6.08;38.64
39491;BME280;25175;50.140;18.990;2023-03-16T13:13:24;99100.47;;;6.69;39.05
39491;BME280;25175;50.140;18.990;2023-03-16T13:16:32;99114.41;;;6.84;37.62
39491;BME280;25175;50.140;18.990;2023-03-16T13:19:38;99104.75;;;6.93;37.70
39491;BME280;25175;50.140;18.990;2023-03-16T13:22:48;99119.06;;;7.05;38.26
39491;BME280;25175;50.140;18.990;2023-03-16T13:26:13;99114.50;;;7.07;37.05
39491;BME280;25175;50.140;18.990;2023-03-16T13:29:23;99124.09;;;7.14;36.89
39491;BME280;25175;50.140;18.990;2023-03-16T13:32:32;99109.13;;;7.08;36.33
39491;BME280;25175;50.140;18.990;2023-03-16T13:35:40;99123.72;;;7.25;36.91
39491;BME280;25175;50.140;18.990;2023-03-16T13:38:55;99114.75;;;7.28;36.15
39491;BME280;25175;50.140;18.990;2023-03-16T13:42:17;99113.59;;;7.30;36.99
39491;BME280;25175;50.140;18.990;2023-03-16T13:45:31;99108.84;;;7.34;35.97
39491;BME280;25175;50.140;18.990;2023-03-16T13:48:38;99101.59;;;7.44;36.56
39491;BME280;25175;50.140;18.990;2023-03-16T13:51:44;99107.75;;;7.51;36.24
39491;BME280;25175;50.140;18.990;2023-03-16T13:54:51;99105.44;;;7.56;36.27
39491;BME280;25175;50.140;18.990;2023-03-16T13:58:21;99101.00;;;7.56;35.41
39491;BME280;25175;50.140;18.990;2023-03-16T14:01:30;99079.72;;;7.45;36.12
39491;BME280;25175;50.140;18.990;2023-03-16T14:04:38;99104.22;;;7.66;34.63
39491;BME280;25175;50.140;18.990;2023-03-16T14:07:45;99099.75;;;7.75;35.14
39491;BME280;25175;50.140;18.990;2023-03-16T14:10:55;98792.94;;;5.92;35.22
39491;BME280;25175;50.140;18.990;2023-03-16T14:14:14;99084.06;;;7.75;35.36
39491;BME280;25175;50.140;18.990;2023-03-16T14:17:22;99099.69;;;7.83;35.61
39491;BME280;25175;50.140;18.990;2023-03-16T14:20:30;99100.25;;;7.93;35.71
39491;BME280;25175;50.140;18.990;2023-03-16T14:23:39;99099.38;;;8.00;34.46
39491;BME280;25175;50.140;18.990;2023-03-16T14:26:48;99102.09;;;8.07;33.59
39491;BME280;25175;50.140;18.990;2023-03-16T14:29:59;99071.50;;;7.93;34.03
39491;BME280;25175;50.140;18.990;2023-03-16T14:33:29;99086.00;;;7.95;33.09
39491;BME280;25175;50.140;18.990;2023-03-16T14:36:37;99101.22;;;8.14;33.26
39491;BME280;25175;50.140;18.990;2023-03-16T14:39:44;99098.44;;;8.16;32.89
39491;BME280;25175;50.140;18.990;2023-03-16T14:42:50;99097.06;;;8.20;33.37
39491;BME280;25175;50.140;18.990;2023-03-16T14:46:04;99113.47;;;8.14;31.47
39491;BME280;25175;50.140;18.990;2023-03-16T14:49:20;99105.34;;;8.09;31.64
39491;BME280;25175;50.140;18.990;2023-03-16T14:52:30;99089.91;;;7.99;32.44
39491;BME280;25175;50.140;18.990;2023-03-16T14:55:37;99099.94;;;8.10;31.92
39491;BME280;25175;50.140;18.990;2023-03-16T14:58:44;99103.09;;;8.06;32.04
39491;BME280;25175;50.140;18.990;2023-03-16T15:02:00;99098.19;;;8.03;31.59
39491;BME280;25175;50.140;18.990;2023-03-16T15:05:14;99096.53;;;8.10;31.93
39491;BME280;25175;50.140;18.990;2023-03-16T15:08:38;99114.00;;;8.09;32.02
39491;BME280;25175;50.140;18.990;2023-03-16T15:11:52;99113.13;;;7.94;31.96
39491;BME280;25175;50.140;18.990;2023-03-16T15:15:00;99112.06;;;7.89;31.92
39491;BME280;25175;50.140;18.990;2023-03-16T15:18:26;99122.91;;;7.78;31.80
39491;BME280;25175;50.140;18.990;2023-03-16T15:21:31;99114.38;;;7.61;32.46
39491;BME280;25175;50.140;18.990;2023-03-16T15:24:38;99105.16;;;7.51;32.83
39491;BME280;25175;50.140;18.990;2023-03-16T15:27:44;99108.84;;;7.56;32.68
39491;BME280;25175;50.140;18.990;2023-03-16T15:30:52;99069.38;;;7.29;33.50
39491;BME280;25175;50.140;18.990;2023-03-16T15:34:04;99100.44;;;7.46;33.80
39491;BME280;25175;50.140;18.990;2023-03-16T15:37:12;99110.69;;;7.48;34.25
39491;BME280;25175;50.140;18.990;2023-03-16T15:40:24;99110.09;;;7.38;34.02
39491;BME280;25175;50.140;18.990;2023-03-16T15:43:32;99116.69;;;7.34;34.19
